Time;durP1;ratioP1;P1;durP2;ratioP2;P2;SDS_P1;SDS_P2;PMS_P1;PMS_P2;Temp;Humidity;BMP_temperature;BMP_pressure;BME280_temperature;BME280_humidity;BME280_pressure;Samples;Min_cycle;Max_cycle;Signal;HPM_P1;HPM_P2
2022/01/09 00:01:03;;;;;;;8.60;3.87;;;2.50;99.90;;;;;;5061548;28;20694;-56
2022/01/09 00:03:29;;;;;;;4.13;3.10;;;2.50;99.90;;;;;;5050622;28;20222;-53
2022/01/09 00:05:56;;;;;;;5.10;2.83;;;2.50;99.90;;;;;;5063924;28;20206;-49
2022/01/09 00:08:24;;;;;;;4.47;3.40;;;2.50;99.90;;;;;;5060866;28;20190;-50
2022/01/09 00:10:51;;;;;;;4.50;3.10;;;2.50;99.90;;;;;;5060374;28;20566;-50
2022/01/09 00:13:18;;;;;;;4.03;3.20;;;2.50;99.90;;;;;;5055247;28;20217;-53
2022/01/09 00:15:46;;;;;;;3.20;2.50;;;2.50;99.90;;;;;;5064326;28;20217;-52
2022/01/09 00:18:13;;;;;;;3.53;2.90;;;2.50;99.90;;;;;;5051650;28;20237;-55
2022/01/09 00:20:41;;;;;;;3.50;2.90;;;2.50;99.90;;;;;;5062767;28;20221;-49
2022/01/09 00:23:08;;;;;;;7.30;3.30;;;2.50;99.90;;;;;;5061941;28;20226;-55
2022/01/09 00:25:36;;;;;;;4.80;2.83;;;2.50;99.90;;;;;;5062831;28;20193;-52
2022/01/09 00:28:04;;;;;;;5.30;2.87;;;2.50;99.90;;;;;;5056473;28;20214;-51
2022/01/09 00:30:31;;;;;;;5.13;3.13;;;2.50;99.90;;;;;;5058524;28;20966;-48
2022/01/09 00:32:58;;;;;;;4.57;3.10;;;2.50;99.90;;;;;;5053220;28;21015;-51
2022/01/09 00:35:25;;;;;;;4.90;2.77;;;2.60;99.90;;;;;;5052793;28;20210;-50
2022/01/09 00:37:51;;;;;;;3.50;3.20;;;2.60;99.90;;;;;;5054534;28;20281;-51
2022/01/09 00:40:19;;;;;;;2.87;2.37;;;2.60;99.90;;;;;;5063984;28;20218;-53
2022/01/09 00:42:47;;;;;;;3.37;2.90;;;2.60;99.90;;;;;;5055270;28;20213;-54
2022/01/09 00:45:15;;;;;;;5.00;2.63;;;2.60;99.90;;;;;;5059139;28;20752;-55
2022/01/09 00:47:42;;;;;;;3.23;2.77;;;2.60;99.90;;;;;;5060462;28;20191;-55
2022/01/09 00:50:10;;;;;;;3.10;2.80;;;2.60;99.90;;;;;;5051969;28;20214;-54
2022/01/09 00:52:38;;;;;;;2.97;2.53;;;2.60;99.90;;;;;;5058683;28;20202;-55
2022/01/09 00:55:07;;;;;;;5.67;2.77;;;2.70;99.90;;;;;;5060788;28;20230;-48
2022/01/09 00:57:33;;;;;;;5.53;3.10;;;2.70;99.90;;;;;;5057446;28;20206;-52
2022/01/09 01:00:01;;;;;;;5.37;2.53;;;2.70;99.90;;;;;;5056477;28;20315;-52
2022/01/09 01:02:29;;;;;;;4.90;2.60;;;2.70;99.90;;;;;;5063179;28;20190;-53
2022/01/09 01:04:56;;;;;;;3.00;1.90;;;2.70;99.90;;;;;;5049006;28;20214;-53
2022/01/09 01:07:24;;;;;;;3.63;2.60;;;2.70;99.90;;;;;;5063341;28;20209;-51
2022/01/09 01:09:50;;;;;;;4.73;2.50;;;2.70;99.90;;;;;;5053924;28;20194;-55
2022/01/09 01:12:17;;;;;;;2.90;2.60;;;2.70;99.90;;;;;;5063634;28;20243;-55
2022/01/09 01:14:44;;;;;;;6.67;2.90;;;2.80;99.90;;;;;;5050940;28;20233;-53
2022/01/09 01:17:13;;;;;;;4.03;2.30;;;2.80;99.90;;;;;;5063181;28;20277;-51
2022/01/09 01:19:40;;;;;;;2.13;1.93;;;2.80;99.90;;;;;;5050016;28;20197;-54
2022/01/09 01:22:07;;;;;;;3.53;2.60;;;2.80;99.90;;;;;;5060203;28;20229;-49
2022/01/09 01:24:36;;;;;;;2.83;2.43;;;2.80;99.90;;;;;;5060141;28;20217;-55
2022/01/09 01:27:04;;;;;;;3.20;2.60;;;2.80;99.90;;;;;;5059605;28;20291;-54
2022/01/09 01:29:31;;;;;;;5.40;2.93;;;2.80;99.90;;;;;;5062422;28;20198;-49
2022/01/09 01:31:57;;;;;;;4.20;2.80;;;2.80;99.90;;;;;;5055753;28;20956;-52
2022/01/09 01:34:26;;;;;;;4.77;2.40;;;2.80;99.90;;;;;;5063506;28;20221;-52
2022/01/09 01:36:53;;;;;;;3.73;2.23;;;2.80;99.90;;;;;;5048856;28;20198;-49
2022/01/09 01:39:20;;;;;;;4.67;2.50;;;2.80;99.90;;;;;;5063442;28;20191;-51
2022/01/09 01:41:46;;;;;;;2.10;2.00;;;2.80;99.90;;;;;;5059081;28;20214;-50
2022/01/09 01:44:14;;;;;;;5.27;2.53;;;2.80;99.90;;;;;;5063378;28;20221;-51
2022/01/09 01:46:41;;;;;;;4.83;2.77;;;2.80;99.90;;;;;;5050281;28;20665;-55
2022/01/09 01:49:11;;;;;;;3.33;3.03;;;2.80;99.90;;;;;;5061967;28;20653;-54
2022/01/09 01:51:41;;;;;;;2.70;2.50;;;2.80;99.90;;;;;;5049564;28;20296;-54
2022/01/09 01:54:10;;;;;;;2.40;2.20;;;2.80;99.90;;;;;;5065306;28;20275;-50
2022/01/09 01:56:37;;;;;;;2.23;2.07;;;2.80;99.90;;;;;;5064873;28;20552;-52
2022/01/09 01:59:04;;;;;;;2.50;2.30;;;2.80;99.90;;;;;;5065696;28;20198;-53
2022/01/09 02:01:31;;;;;;;4.57;2.70;;;2.80;99.90;;;;;;5060203;28;20230;-54
2022/01/09 02:03:58;;;;;;;5.63;2.47;;;2.80;99.90;;;;;;5060544;28;20215;-51
2022/01/09 02:06:25;;;;;;;2.60;2.40;;;2.80;99.90;;;;;;5055520;28;20222;-50
2022/01/09 02:08:53;;;;;;;5.73;2.60;;;2.80;99.90;;;;;;5061170;28;20187;-51
2022/01/09 02:11:20;;;;;;;2.10;1.90;;;2.80;99.90;;;;;;5066745;28;20187;-47
2022/01/09 02:13:47;;;;;;;5.63;2.40;;;2.80;99.90;;;;;;5062540;28;20215;-49
2022/01/09 02:16:18;;;;;;;3.13;2.30;;;2.80;99.90;;;;;;5062028;28;20210;-54
2022/01/09 02:18:45;;;;;;;3.27;2.47;;;2.80;99.90;;;;;;5056956;28;20733;-51
2022/01/09 02:21:13;;;;;;;2.90;2.60;;;2.80;99.90;;;;;;5065979;28;20214;-52
2022/01/09 02:23:46;;;;;;;2.43;2.17;;;2.90;99.90;;;;;;5052411;28;20787;-49
2022/01/09 02:26:16;;;;;;;6.40;2.60;;;2.80;99.90;;;;;;5066398;28;20553;-47
2022/01/09 02:28:43;;;;;;;2.80;2.50;;;2.90;99.90;;;;;;5062638;28;20201;-52
2022/01/09 02:31:10;;;;;;;4.33;2.27;;;2.80;99.90;;;;;;5061606;28;20191;-51
2022/01/09 02:33:37;;;;;;;2.77;2.43;;;2.80;99.90;;;;;;5059261;28;20257;-53
2022/01/09 02:36:05;;;;;;;4.07;2.53;;;2.80;99.90;;;;;;5064740;28;20224;-52
2022/01/09 02:38:33;;;;;;;2.77;2.57;;;2.80;99.90;;;;;;5053923;28;20199;-53
2022/01/09 02:41:00;;;;;;;3.33;3.03;;;2.80;99.90;;;;;;5064059;28;20372;-52
2022/01/09 02:43:27;;;;;;;3.87;2.90;;;2.70;99.90;;;;;;5066156;28;20271;-54
2022/01/09 02:46:03;;;;;;;3.70;2.77;;;2.70;99.90;;;;;;5062547;28;20881;-51
2022/01/09 02:48:33;;;;;;;3.67;2.67;;;2.70;99.90;;;;;;5059587;28;20576;-52
2022/01/09 02:51:05;;;;;;;3.20;2.77;;;2.70;99.90;;;;;;5060667;28;20195;-54
2022/01/09 02:53:34;;;;;;;3.37;3.07;;;2.60;99.90;;;;;;5049802;28;20562;-53
2022/01/09 02:56:01;;;;;;;7.43;3.00;;;2.60;99.90;;;;;;5063714;28;20264;-48
2022/01/09 02:58:28;;;;;;;3.47;3.17;;;2.60;99.90;;;;;;5065579;28;20191;-52
2022/01/09 03:00:55;;;;;;;5.40;3.57;;;2.60;99.90;;;;;;5062741;28;20214;-54
2022/01/09 03:03:22;;;;;;;3.70;2.50;;;2.60;99.90;;;;;;5065899;28;20694;-54
2022/01/09 03:05:49;;;;;;;3.90;2.73;;;2.60;99.90;;;;;;5055343;28;20194;-52
2022/01/09 03:08:16;;;;;;;4.37;3.00;;;2.60;99.90;;;;;;5054054;28;20203;-50
2022/01/09 03:10:44;;;;;;;3.87;2.73;;;2.50;99.90;;;;;;5061977;28;20644;-51
2022/01/09 03:13:11;;;;;;;3.97;2.70;;;2.50;99.90;;;;;;5065792;28;20222;-53
2022/01/09 03:15:38;;;;;;;3.63;2.90;;;2.50;99.90;;;;;;5063373;28;20206;-51
2022/01/09 03:18:05;;;;;;;6.47;3.10;;;2.50;99.90;;;;;;5064457;28;20179;-49
2022/01/09 03:20:33;;;;;;;4.00;2.90;;;2.40;99.90;;;;;;5062870;28;20201;-50
2022/01/09 03:22:59;;;;;;;4.37;2.93;;;2.40;99.90;;;;;;5048648;28;20573;-53
2022/01/09 03:25:28;;;;;;;4.27;2.70;;;2.40;99.90;;;;;;5065461;28;20203;-53
2022/01/09 03:27:57;;;;;;;4.73;3.00;;;2.40;99.90;;;;;;5061795;28;20187;-51
2022/01/09 03:30:25;;;;;;;6.60;3.20;;;2.40;99.90;;;;;;5065456;28;20214;-51
2022/01/09 03:32:54;;;;;;;5.20;3.77;;;2.50;99.90;;;;;;5061506;28;20188;-54
2022/01/09 03:35:23;;;;;;;3.97;3.37;;;2.40;99.90;;;;;;5065298;28;20187;-51
2022/01/09 03:37:51;;;;;;;4.43;2.70;;;2.40;99.90;;;;;;5056007;28;20229;-49
2022/01/09 03:40:20;;;;;;;4.93;3.10;;;2.40;99.90;;;;;;5053797;28;20764;-50
2022/01/09 03:42:47;;;;;;;4.87;2.80;;;2.40;99.90;;;;;;5061078;28;20229;-49
2022/01/09 03:45:16;;;;;;;5.53;3.00;;;2.40;99.90;;;;;;5065231;28;20683;-54
2022/01/09 03:47:44;;;;;;;3.03;2.83;;;2.40;99.90;;;;;;5061387;28;20194;-53
2022/01/09 03:50:14;;;;;;;3.57;3.27;;;2.40;99.90;;;;;;5065027;28;20187;-54
2022/01/09 03:52:41;;;;;;;3.10;2.60;;;2.50;99.90;;;;;;5058273;28;20598;-54
2022/01/09 03:55:12;;;;;;;3.73;3.00;;;2.50;99.90;;;;;;5051748;28;20682;-52
2022/01/09 03:57:40;;;;;;;4.60;2.87;;;2.50;99.90;;;;;;5060663;28;20195;-54
2022/01/09 04:00:09;;;;;;;3.90;2.70;;;2.50;99.90;;;;;;5061868;28;20202;-53
2022/01/09 04:02:40;;;;;;;3.80;2.83;;;2.50;99.90;;;;;;5062322;28;20218;-51
2022/01/09 04:05:07;;;;;;;4.60;3.27;;;2.50;99.90;;;;;;5063897;28;20210;-55
2022/01/09 04:07:34;;;;;;;3.80;3.43;;;2.50;99.90;;;;;;5061055;28;20241;-51
2022/01/09 04:10:01;;;;;;;3.07;2.73;;;2.50;99.90;;;;;;5046156;28;20215;-51
2022/01/09 04:12:34;;;;;;;3.10;2.80;;;2.50;99.90;;;;;;5064048;28;20194;-53
2022/01/09 04:15:05;;;;;;;2.70;2.50;;;2.50;99.90;;;;;;5061183;28;20898;-50
2022/01/09 04:17:43;;;;;;;4.23;2.97;;;2.50;99.90;;;;;;5062937;28;20612;-50
2022/01/09 04:20:12;;;;;;;2.80;2.43;;;2.50;99.90;;;;;;5062337;28;20654;-50
2022/01/09 04:22:40;;;;;;;4.40;3.07;;;2.50;99.90;;;;;;5061378;28;20226;-54
2022/01/09 04:25:08;;;;;;;3.87;3.10;;;2.50;99.90;;;;;;5045601;28;20412;-53
2022/01/09 04:27:35;;;;;;;4.00;2.80;;;2.50;99.90;;;;;;5062229;28;20187;-54
2022/01/09 04:30:01;;;;;;;3.13;2.80;;;2.40;99.90;;;;;;5062391;28;20209;-52
2022/01/09 04:32:28;;;;;;;3.50;3.20;;;2.50;99.90;;;;;;5063985;28;20186;-53
2022/01/09 04:34:55;;;;;;;3.53;2.47;;;2.50;99.90;;;;;;5060835;28;20218;-51
2022/01/09 04:37:24;;;;;;;4.50;2.67;;;2.50;99.90;;;;;;5063712;28;20191;-50
2022/01/09 04:39:52;;;;;;;3.13;2.83;;;2.40;99.90;;;;;;5050740;28;20285;-52
2022/01/09 04:42:22;;;;;;;5.37;3.57;;;2.40;99.90;;;;;;5052705;28;20215;-52
2022/01/09 04:44:50;;;;;;;7.70;4.00;;;2.40;99.90;;;;;;5060142;28;20214;-52
2022/01/09 04:47:17;;;;;;;4.53;3.20;;;2.40;99.90;;;;;;5064212;28;20206;-53
2022/01/09 04:49:46;;;;;;;3.60;3.20;;;2.40;99.90;;;;;;5059106;28;20751;-53
2022/01/09 04:52:17;;;;;;;3.53;3.17;;;2.40;99.90;;;;;;5063751;28;20194;-51
2022/01/09 04:54:46;;;;;;;4.40;3.03;;;2.40;99.90;;;;;;5059944;28;20997;-53
2022/01/09 04:57:13;;;;;;;4.57;3.80;;;2.40;99.90;;;;;;5047043;28;20244;-53
2022/01/09 04:59:40;;;;;;;3.67;3.10;;;2.40;99.90;;;;;;5060133;28;20191;-51
2022/01/09 05:02:07;;;;;;;3.70;3.23;;;2.40;99.90;;;;;;5063629;28;20229;-51
2022/01/09 05:04:34;;;;;;;3.77;2.30;;;2.40;99.90;;;;;;5061572;28;20212;-53
2022/01/09 05:07:00;;;;;;;3.13;2.80;;;2.40;99.90;;;;;;5061947;28;20182;-49
2022/01/09 05:09:27;;;;;;;7.83;2.70;;;2.40;99.90;;;;;;5061156;28;20191;-51
2022/01/09 05:11:56;;;;;;;4.87;3.40;;;2.40;99.90;;;;;;5043015;28;20206;-55
2022/01/09 05:14:22;;;;;;;5.03;4.53;;;2.40;99.90;;;;;;5063407;28;20230;-54
2022/01/09 05:16:50;;;;;;;4.73;3.00;;;2.40;99.90;;;;;;5058738;28;20193;-53
2022/01/09 05:19:20;;;;;;;7.60;3.60;;;2.30;99.90;;;;;;5058886;28;20187;-55
2022/01/09 05:21:48;;;;;;;3.13;2.63;;;2.30;99.90;;;;;;5063100;28;20306;-54
2022/01/09 05:24:16;;;;;;;3.50;3.00;;;2.30;99.90;;;;;;5060508;28;20962;-54
2022/01/09 05:26:43;;;;;;;11.13;3.83;;;2.30;99.90;;;;;;5058303;28;20210;-54
2022/01/09 05:29:11;;;;;;;6.87;3.60;;;2.30;99.90;;;;;;5047157;28;20286;-53
2022/01/09 05:31:38;;;;;;;6.00;3.27;;;2.30;99.90;;;;;;5063407;28;20655;-52
2022/01/09 05:34:05;;;;;;;4.20;2.70;;;2.30;99.90;;;;;;5059388;28;20210;-53
2022/01/09 05:36:33;;;;;;;4.07;2.93;;;2.30;99.90;;;;;;5063263;28;20195;-53
2022/01/09 05:38:59;;;;;;;3.80;3.33;;;2.20;99.90;;;;;;5060551;28;20195;-53
2022/01/09 05:41:26;;;;;;;5.67;3.10;;;2.20;99.90;;;;;;5057395;28;20207;-50
2022/01/09 05:43:54;;;;;;;3.33;3.03;;;2.20;99.90;;;;;;5050174;28;20226;-52
2022/01/09 05:46:22;;;;;;;4.17;3.80;;;2.20;99.90;;;;;;5061141;28;20199;-51
2022/01/09 05:48:49;;;;;;;4.67;4.27;;;2.10;99.90;;;;;;5061791;28;20236;-53
2022/01/09 05:51:16;;;;;;;5.63;3.37;;;2.10;99.90;;;;;;5060250;28;20194;-51
2022/01/09 05:53:43;;;;;;;5.23;3.47;;;2.10;99.90;;;;;;5063174;28;20718;-50
2022/01/09 05:56:10;;;;;;;3.40;3.10;;;2.00;99.90;;;;;;5053994;28;20205;-51
2022/01/09 05:58:36;;;;;;;4.17;3.53;;;2.00;99.90;;;;;;5051771;28;20211;-53
2022/01/09 06:01:04;;;;;;;5.83;3.57;;;2.00;99.90;;;;;;5058594;28;20202;-49
2022/01/09 06:03:33;;;;;;;6.30;3.77;;;2.00;99.90;;;;;;5063064;28;20601;-51
2022/01/09 06:05:59;;;;;;;5.77;5.27;;;1.90;99.90;;;;;;5060005;28;20237;-52
2022/01/09 06:08:27;;;;;;;5.10;4.53;;;2.00;99.90;;;;;;5062532;28;20201;-52
2022/01/09 06:10:54;;;;;;;5.87;3.63;;;1.90;99.90;;;;;;5061228;28;20195;-52
2022/01/09 06:13:21;;;;;;;4.00;3.60;;;1.90;99.90;;;;;;5055966;28;20222;-53
2022/01/09 06:15:48;;;;;;;4.37;3.97;;;1.90;99.90;;;;;;5050972;28;20214;-53
2022/01/09 06:18:19;;;;;;;7.03;4.40;;;1.80;99.90;;;;;;5059879;28;20199;-53
2022/01/09 06:20:47;;;;;;;9.07;5.30;;;1.80;99.90;;;;;;5062996;28;20194;-52
2022/01/09 06:23:16;;;;;;;6.73;4.70;;;1.80;99.90;;;;;;5059873;28;20428;-53
2022/01/09 06:25:43;;;;;;;5.63;4.43;;;1.80;99.90;;;;;;5062899;28;20244;-55
2022/01/09 06:28:10;;;;;;;5.27;4.77;;;1.80;99.90;;;;;;5053723;28;20211;-53
2022/01/09 06:30:37;;;;;;;4.93;4.17;;;1.70;99.90;;;;;;5051228;28;20199;-48
2022/01/09 06:33:04;;;;;;;5.07;4.00;;;1.80;99.90;;;;;;5058921;28;20187;-52
2022/01/09 06:35:30;;;;;;;5.30;4.07;;;1.70;99.90;;;;;;5062968;28;20647;-52
2022/01/09 06:37:59;;;;;;;6.60;4.70;;;1.70;99.90;;;;;;5060117;28;20210;-53
2022/01/09 06:40:25;;;;;;;6.97;5.27;;;1.70;99.90;;;;;;5064708;28;20547;-50
2022/01/09 06:42:52;;;;;;;5.70;5.10;;;1.70;99.90;;;;;;5062661;28;20643;-55
2022/01/09 06:45:21;;;;;;;6.83;5.17;;;1.70;99.90;;;;;;5049891;28;20206;-50
2022/01/09 06:47:49;;;;;;;7.27;4.87;;;1.70;99.90;;;;;;5048522;28;20238;-54
2022/01/09 06:50:16;;;;;;;5.63;4.77;;;1.70;99.90;;;;;;5059500;28;20899;-53
2022/01/09 06:52:42;;;;;;;5.40;4.90;;;1.80;99.90;;;;;;5056067;28;20226;-54
2022/01/09 06:55:12;;;;;;;5.77;5.27;;;1.80;99.90;;;;;;5055313;28;20195;-51
2022/01/09 06:57:39;;;;;;;6.17;5.40;;;1.80;99.90;;;;;;5055959;28;20686;-53
2022/01/09 07:00:07;;;;;;;7.23;5.57;;;1.80;99.90;;;;;;5041489;28;21439;-51
2022/01/09 07:02:34;;;;;;;7.53;5.63;;;1.80;99.90;;;;;;5063755;28;20596;-53
2022/01/09 07:05:01;;;;;;;5.83;5.20;;;1.80;99.90;;;;;;5051353;28;20219;-50
2022/01/09 07:07:28;;;;;;;6.07;4.90;;;1.80;99.90;;;;;;5053899;28;20210;-53
2022/01/09 07:09:54;;;;;;;6.53;5.73;;;1.80;99.90;;;;;;5056698;28;20225;-52
2022/01/09 07:12:23;;;;;;;10.37;5.73;;;1.80;99.90;;;;;;5053988;28;20187;-51
2022/01/09 07:14:50;;;;;;;7.53;6.17;;;1.80;99.90;;;;;;5053356;28;20591;-55
2022/01/09 07:17:16;;;;;;;6.07;5.40;;;1.80;99.90;;;;;;5054883;28;20194;-54
2022/01/09 07:19:43;;;;;;;7.07;5.13;;;1.80;99.90;;;;;;5064818;28;20203;-52
2022/01/09 07:22:10;;;;;;;9.00;5.60;;;1.80;99.90;;;;;;5056222;28;20269;-48
2022/01/09 07:24:37;;;;;;;6.07;5.30;;;1.80;99.90;;;;;;5046819;28;20238;-50
2022/01/09 07:27:04;;;;;;;9.43;5.80;;;1.70;99.90;;;;;;5038253;28;21030;-50
2022/01/09 07:29:34;;;;;;;7.43;5.97;;;1.70;99.90;;;;;;5052680;28;20199;-50
2022/01/09 07:32:01;;;;;;;10.30;6.70;;;1.70;99.90;;;;;;5037397;28;20336;-54
2022/01/09 07:34:27;;;;;;;7.87;7.07;;;1.80;99.90;;;;;;5064475;28;20218;-52
2022/01/09 07:36:54;;;;;;;11.57;6.93;;;1.80;99.90;;;;;;5051187;28;20202;-54
2022/01/09 07:39:21;;;;;;;8.47;5.70;;;1.80;99.90;;;;;;5056051;28;20195;-54
2022/01/09 07:41:49;;;;;;;7.37;5.67;;;1.80;99.90;;;;;;5061579;28;20204;-53
2022/01/09 07:44:18;;;;;;;7.13;5.77;;;1.80;99.90;;;;;;5061915;28;20233;-55
2022/01/09 07:46:47;;;;;;;8.40;6.00;;;1.80;99.90;;;;;;5045964;28;20214;-49
2022/01/09 07:49:13;;;;;;;9.77;6.60;;;1.80;99.90;;;;;;5058065;28;20199;-52
2022/01/09 07:51:40;;;;;;;8.57;7.17;;;1.80;99.90;;;;;;5058109;28;20198;-50
2022/01/09 07:54:07;;;;;;;8.83;6.67;;;1.80;99.90;;;;;;5052100;28;20969;-50
2022/01/09 07:56:34;;;;;;;9.00;6.63;;;1.80;99.90;;;;;;5059505;28;20213;-51
2022/01/09 07:59:00;;;;;;;6.80;6.10;;;1.90;99.90;;;;;;5064135;28;20196;-50
2022/01/09 08:01:28;;;;;;;9.57;6.53;;;1.90;99.90;;;;;;5058513;28;20195;-51
2022/01/09 08:03:56;;;;;;;8.37;7.27;;;1.90;99.90;;;;;;5036048;28;20219;-51
2022/01/09 08:06:24;;;;;;;8.27;6.47;;;1.90;99.90;;;;;;5051502;28;20207;-48
2022/01/09 08:08:51;;;;;;;6.40;5.60;;;1.90;99.90;;;;;;5050969;28;20199;-49
2022/01/09 08:11:18;;;;;;;7.77;6.17;;;1.90;99.90;;;;;;5060144;28;20202;-50
2022/01/09 08:13:45;;;;;;;8.03;6.23;;;1.90;99.90;;;;;;5053785;28;20214;-54
2022/01/09 08:16:12;;;;;;;11.23;6.80;;;1.90;99.90;;;;;;5061913;28;20210;-49
2022/01/09 08:18:39;;;;;;;9.63;6.77;;;1.90;99.90;;;;;;5048567;28;20260;-55
2022/01/09 08:21:07;;;;;;;8.33;6.43;;;1.90;99.90;;;;;;5058156;28;20289;-53
2022/01/09 08:23:33;;;;;;;7.83;7.00;;;2.00;99.90;;;;;;5051763;28;20226;-54
2022/01/09 08:26:00;;;;;;;7.77;6.97;;;2.00;99.90;;;;;;5053587;28;20217;-51
2022/01/09 08:28:27;;;;;;;7.77;6.67;;;2.00;99.90;;;;;;5060242;28;20217;-52
2022/01/09 08:30:54;;;;;;;7.47;6.70;;;2.00;99.90;;;;;;5050508;28;20888;-51
2022/01/09 08:33:24;;;;;;;7.37;6.20;;;2.00;99.90;;;;;;5041621;28;20215;-52
2022/01/09 08:35:51;;;;;;;9.63;7.20;;;2.00;99.90;;;;;;5051238;28;20209;-54
2022/01/09 08:38:21;;;;;;;8.00;6.53;;;2.00;99.90;;;;;;5064190;28;20281;-49
2022/01/09 08:40:49;;;;;;;8.20;6.77;;;2.10;99.90;;;;;;5048874;28;20260;-51
2022/01/09 08:43:16;;;;;;;8.57;7.50;;;2.10;99.90;;;;;;5058803;28;20226;-52
2022/01/09 08:45:42;;;;;;;9.33;7.47;;;2.10;99.90;;;;;;5061154;28;20202;-50
2022/01/09 08:48:09;;;;;;;8.57;7.23;;;2.20;99.90;;;;;;5049498;28;20215;-52
2022/01/09 08:50:36;;;;;;;8.77;7.20;;;2.20;99.90;;;;;;5052451;28;20577;-52
2022/01/09 08:53:03;;;;;;;8.63;6.87;;;2.20;99.90;;;;;;5052096;28;20188;-49
2022/01/09 08:55:31;;;;;;;9.47;7.40;;;2.20;99.90;;;;;;5049675;28;20210;-51
2022/01/09 08:57:58;;;;;;;7.70;6.93;;;2.20;99.90;;;;;;5055964;28;21685;-49
2022/01/09 09:00:25;;;;;;;7.57;6.70;;;2.20;99.90;;;;;;5059601;28;20645;-47
2022/01/09 09:02:51;;;;;;;8.70;6.70;;;2.20;99.90;;;;;;5040529;28;20222;-49
2022/01/09 09:05:20;;;;;;;8.97;7.37;;;2.20;99.90;;;;;;5054866;28;20217;-50
2022/01/09 09:07:47;;;;;;;9.33;7.23;;;2.20;99.90;;;;;;5059002;28;20202;-53
2022/01/09 09:10:14;;;;;;;8.40;7.50;;;2.20;99.90;;;;;;5057009;28;20211;-52
2022/01/09 09:12:42;;;;;;;11.60;7.77;;;2.20;99.90;;;;;;5054550;28;20206;-54
2022/01/09 09:15:10;;;;;;;9.00;7.63;;;2.30;99.90;;;;;;5053538;28;20218;-56
2022/01/09 09:17:37;;;;;;;9.80;7.57;;;2.30;99.90;;;;;;5051942;28;20195;-58
2022/01/09 09:20:05;;;;;;;8.77;7.30;;;2.30;99.90;;;;;;5052562;28;20213;-54
2022/01/09 09:22:32;;;;;;;9.60;7.40;;;2.30;99.90;;;;;;5048571;28;20226;-55
2022/01/09 09:24:59;;;;;;;7.70;6.87;;;2.30;99.90;;;;;;5050990;28;20234;-52
2022/01/09 09:27:30;;;;;;;10.73;7.30;;;2.40;99.90;;;;;;5054029;28;20206;-52
2022/01/09 09:30:00;;;;;;;8.80;7.47;;;2.40;99.90;;;;;;5049859;28;20211;-52
2022/01/09 09:32:27;;;;;;;10.63;7.87;;;2.50;99.90;;;;;;5059090;28;20194;-51
2022/01/09 09:34:53;;;;;;;12.73;8.03;;;2.50;99.90;;;;;;5045203;28;20252;-49
2022/01/09 09:37:20;;;;;;;9.27;8.30;;;2.50;99.90;;;;;;5058247;28;20209;-56
2022/01/09 09:39:51;;;;;;;8.33;7.47;;;2.50;99.90;;;;;;5051853;28;20209;-55
2022/01/09 09:42:18;;;;;;;10.80;7.10;;;2.50;99.90;;;;;;5058046;28;20227;-54
2022/01/09 09:44:45;;;;;;;10.30;8.53;;;2.50;99.90;;;;;;5052836;28;20714;-54
2022/01/09 09:47:14;;;;;;;13.93;8.37;;;2.50;99.90;;;;;;5057683;28;20316;-50
2022/01/09 09:49:40;;;;;;;10.30;8.07;;;2.50;99.90;;;;;;5039316;28;20206;-54
2022/01/09 09:52:07;;;;;;;11.17;8.80;;;2.60;99.90;;;;;;5056409;28;20210;-51
2022/01/09 09:54:34;;;;;;;11.13;9.17;;;2.60;99.90;;;;;;5057187;28;20230;-53
2022/01/09 09:57:01;;;;;;;11.17;8.90;;;2.60;99.90;;;;;;5054460;28;20211;-54
2022/01/09 09:59:35;;;;;;;9.67;7.83;;;2.60;99.90;;;;;;5060912;28;20191;-47
2022/01/09 10:02:09;;;;;;;12.23;8.67;;;2.60;99.90;;;;;;5044766;28;20839;-45
2022/01/09 10:04:37;;;;;;;9.93;8.27;;;2.70;99.90;;;;;;5046698;28;20249;-53
2022/01/09 10:07:04;;;;;;;10.73;8.77;;;2.70;99.90;;;;;;5053136;28;20199;-55
2022/01/09 10:09:30;;;;;;;11.77;8.43;;;2.70;99.90;;;;;;5051047;28;20195;-52
2022/01/09 10:12:00;;;;;;;11.37;8.40;;;2.80;99.90;;;;;;5044566;28;20203;-48
2022/01/09 10:14:29;;;;;;;11.60;8.53;;;2.80;99.90;;;;;;5061848;28;20214;-52
2022/01/09 10:17:11;;;;;;;11.70;8.73;;;2.70;99.90;;;;;;5053992;28;20930;-51
2022/01/09 10:19:47;;;;;;;10.00;8.83;;;2.70;99.90;;;;;;5055876;28;20651;-53
2022/01/09 10:22:25;;;;;;;12.03;8.93;;;2.80;99.90;;;;;;5049728;28;20217;-50
2022/01/09 10:24:52;;;;;;;11.13;8.47;;;2.80;99.90;;;;;;5052925;28;20590;-51
2022/01/09 10:27:30;;;;;;;10.50;8.73;;;2.80;99.90;;;;;;5044987;28;20213;-53
2022/01/09 10:29:58;;;;;;;11.13;8.43;;;2.80;99.90;;;;;;5062625;28;20198;-53
2022/01/09 10:32:29;;;;;;;9.97;8.03;;;2.80;99.90;;;;;;5058415;28;20205;-49
2022/01/09 10:35:15;;;;;;;9.60;8.17;;;2.80;99.90;;;;;;5045526;28;20218;-54
2022/01/09 10:37:44;;;;;;;9.43;7.87;;;2.80;99.90;;;;;;5051273;28;20663;-50
2022/01/09 10:40:19;;;;;;;9.50;7.50;;;2.80;99.90;;;;;;5057350;28;20206;-51
2022/01/09 10:43:02;;;;;;;9.20;8.20;;;2.80;99.90;;;;;;5061053;28;20198;-50
2022/01/09 10:45:30;;;;;;;8.63;7.20;;;2.80;99.90;;;;;;5056084;28;20256;-56
2022/01/09 10:48:04;;;;;;;9.73;7.80;;;2.90;99.90;;;;;;5053618;28;20581;-53
2022/01/09 10:50:37;;;;;;;8.97;7.47;;;2.90;99.90;;;;;;5056876;28;20206;-53
2022/01/09 10:53:21;;;;;;;8.67;6.77;;;2.90;99.90;;;;;;5050702;28;20222;-54
2022/01/09 10:56:03;;;;;;;7.67;6.87;;;2.90;99.90;;;;;;5057381;28;20206;-49
2022/01/09 10:58:53;;;;;;;7.40;6.70;;;2.90;99.90;;;;;;5057590;28;20213;-55
2022/01/09 11:01:23;;;;;;;7.97;6.57;;;2.90;99.90;;;;;;5061307;28;20210;-53
2022/01/09 11:03:51;;;;;;;7.73;6.90;;;2.90;99.90;;;;;;5056789;28;20222;-52
2022/01/09 11:06:21;;;;;;;7.57;6.77;;;2.90;99.90;;;;;;5042738;28;20202;-55
2022/01/09 11:08:48;;;;;;;8.07;6.80;;;2.90;99.90;;;;;;5058378;28;20938;-52
2022/01/09 11:11:30;;;;;;;7.60;6.80;;;2.90;99.90;;;;;;5056486;28;20671;-49
2022/01/09 11:14:00;;;;;;;8.87;6.63;;;2.90;99.90;;;;;;5056106;28;20229;-50
2022/01/09 11:16:34;;;;;;;8.07;7.20;;;2.90;99.90;;;;;;5058256;28;20686;-54
2022/01/09 11:19:03;;;;;;;8.50;6.47;;;3.00;99.90;;;;;;5056394;28;20679;-50
2022/01/09 11:21:32;;;;;;;7.07;6.40;;;2.90;99.90;;;;;;5052205;28;20198;-52
2022/01/09 11:24:24;;;;;;;7.43;6.73;;;2.90;99.90;;;;;;5061431;28;20650;-50
2022/01/09 11:26:53;;;;;;;7.13;5.23;;;3.00;99.90;;;;;;5056967;28;20191;-49
2022/01/09 11:29:26;;;;;;;6.17;5.57;;;3.00;99.90;;;;;;5059904;28;20199;-53
2022/01/09 11:32:02;;;;;;;6.93;6.23;;;3.00;99.90;;;;;;5063441;28;20201;-47
2022/01/09 11:34:38;;;;;;;6.80;6.10;;;3.00;99.90;;;;;;5057776;28;20241;-51
2022/01/09 11:37:21;;;;;;;6.30;5.73;;;3.00;99.90;;;;;;5050706;28;20205;-53
2022/01/09 11:39:48;;;;;;;8.83;6.20;;;3.00;99.90;;;;;;5058795;28;20701;-48
2022/01/09 11:42:16;;;;;;;7.37;6.67;;;3.00;99.90;;;;;;5055950;28;20202;-55
2022/01/09 11:44:48;;;;;;;7.47;6.27;;;3.10;99.90;;;;;;5055881;28;20218;-49
2022/01/09 11:47:14;;;;;;;7.10;6.43;;;3.10;99.90;;;;;;5057076;28;20206;-51
2022/01/09 11:50:05;;;;;;;8.00;7.20;;;3.10;99.90;;;;;;5057280;28;20691;-49
2022/01/09 11:52:34;;;;;;;7.80;6.83;;;3.10;99.90;;;;;;5059626;28;20199;-49
2022/01/09 11:55:04;;;;;;;9.03;7.60;;;3.10;99.90;;;;;;5048938;28;20301;-53
2022/01/09 11:57:40;;;;;;;8.07;7.00;;;3.10;99.90;;;;;;5053235;28;20232;-48
2022/01/09 12:00:29;;;;;;;10.00;8.13;;;3.20;99.90;;;;;;5047504;28;20194;-53
2022/01/09 12:02:57;;;;;;;7.80;7.10;;;3.20;99.90;;;;;;5060211;28;20202;-52
2022/01/09 12:05:25;;;;;;;7.93;7.13;;;3.20;99.90;;;;;;5055545;28;20280;-49
2022/01/09 12:08:03;;;;;;;10.10;8.20;;;3.20;99.90;;;;;;5054100;28;20330;-46
2022/01/09 12:10:35;;;;;;;10.43;8.13;;;3.20;99.90;;;;;;5047893;28;20739;-52
2022/01/09 12:13:04;;;;;;;10.00;8.90;;;3.20;99.90;;;;;;5056055;28;20281;-50
2022/01/09 12:15:36;;;;;;;12.73;9.40;;;3.30;99.90;;;;;;5045049;28;20198;-48
2022/01/09 12:18:04;;;;;;;10.70;8.97;;;3.30;99.90;;;;;;5058170;28;20187;-53
2022/01/09 12:20:37;;;;;;;9.77;8.77;;;3.30;99.90;;;;;;5063554;28;20202;-51
2022/01/09 12:23:06;;;;;;;9.47;8.00;;;3.30;99.90;;;;;;5058509;28;20207;-50
2022/01/09 12:25:50;;;;;;;9.73;7.83;;;3.40;99.90;;;;;;5046718;28;20574;-54
2022/01/09 12:28:19;;;;;;;9.90;8.87;;;3.40;99.90;;;;;;5058504;28;20678;-49
2022/01/09 12:30:52;;;;;;;9.73;7.83;;;3.40;99.90;;;;;;5047238;28;20274;-50
2022/01/09 12:33:56;;;;;;;11.13;8.33;;;3.40;99.90;;;;;;5053529;28;20222;-51
2022/01/09 12:36:27;;;;;;;12.17;8.43;;;3.50;99.90;;;;;;5058527;28;20548;-52
2022/01/09 12:38:59;;;;;;;10.80;8.70;;;3.40;99.90;;;;;;5052035;28;20198;-52
2022/01/09 12:41:33;;;;;;;13.30;9.37;;;3.50;99.90;;;;;;5041620;28;20211;-54
2022/01/09 12:44:04;;;;;;;9.37;8.37;;;3.50;99.90;;;;;;5050892;28;20214;-49
2022/01/09 12:46:33;;;;;;;10.03;8.60;;;3.50;99.90;;;;;;5053946;28;20560;-55
2022/01/09 12:49:02;;;;;;;8.73;7.63;;;3.50;99.90;;;;;;5060250;28;20237;-51
2022/01/09 12:51:30;;;;;;;9.43;7.87;;;3.60;99.90;;;;;;5053733;28;20667;-54
2022/01/09 12:54:01;;;;;;;8.57;7.67;;;3.70;99.90;;;;;;5057006;28;20214;-50
2022/01/09 12:56:29;;;;;;;8.10;7.23;;;3.70;99.90;;;;;;5044855;28;20209;-54
2022/01/09 12:58:57;;;;;;;10.00;8.50;;;3.80;99.90;;;;;;5048846;28;20208;-53
2022/01/09 13:01:26;;;;;;;9.37;7.50;;;3.80;99.90;;;;;;5048634;28;20245;-53
2022/01/09 13:03:55;;;;;;;10.33;8.40;;;3.80;99.90;;;;;;5053541;28;20238;-54